Pea Ridge, Missouri
Current Conditions -  °F | °C
As of 2:35 AM on Monday 24 Nov 2014 (Local Time) from KFYG Reporting Station
Light Rain Light Rain  
Wind Chill: 34°   Ceiling: Unl
Heat Index: 43°   Visibility: 5mi
Dew Point: 39°   Wind: 21mph
Humidity: 87%   Direction: 300°WNW
Pressure: 29.35"   Gusts: 29mph
Location:  38.2643°N, 91.1348°W
Report Text: KFYG 240835Z AUTO 30018G25KT 5SM -RA SCT015 06/04 A2935 RMK AO2 LTG DSNT E AND SE P0001
Loading
Personal Weather Stations






























Interactive Weather Map New forecast layout! Learn more

10-Day Weather Forecast

Advertisements
Track Severe Weather on mobile